sensor_id;sensor_type;location;lat;lon;timestamp;temperature;humidity
37032;DHT22;22940;52.266;10.536;2023-02-28T00:00:09;4.00;1.00
37032;DHT22;22940;52.266;10.536;2023-02-28T00:02:39;3.90;1.00
37032;DHT22;22940;52.266;10.536;2023-02-28T00:05:05;3.80;1.00
37032;DHT22;22940;52.266;10.536;2023-02-28T00:07:31;3.70;1.00
37032;DHT22;22940;52.266;10.536;2023-02-28T00:09:57;3.60;1.00
37032;DHT22;22940;52.266;10.536;2023-02-28T00:12:22;3.50;1.00
37032;DHT22;22940;52.266;10.536;2023-02-28T00:14:48;3.40;1.00
37032;DHT22;22940;52.266;10.536;2023-02-28T00:17:14;3.40;1.00
37032;DHT22;22940;52.266;10.536;2023-02-28T00:19:39;3.30;1.00
37032;DHT22;22940;52.266;10.536;2023-02-28T00:22:05;3.40;1.00
37032;DHT22;22940;52.266;10.536;2023-02-28T00:24:30;3.40;1.00
37032;DHT22;22940;52.266;10.536;2023-02-28T00:26:56;3.40;1.00
37032;DHT22;22940;52.266;10.536;2023-02-28T00:29:21;3.70;1.00
37032;DHT22;22940;52.266;10.536;2023-02-28T00:31:47;3.70;1.00
37032;DHT22;22940;52.266;10.536;2023-02-28T00:34:12;3.50;1.00
37032;DHT22;22940;52.266;10.536;2023-02-28T00:36:38;3.50;1.00
37032;DHT22;22940;52.266;10.536;2023-02-28T00:39:04;3.50;1.00
37032;DHT22;22940;52.266;10.536;2023-02-28T00:41:29;3.50;1.00
37032;DHT22;22940;52.266;10.536;2023-02-28T00:43:55;3.60;1.00
37032;DHT22;22940;52.266;10.536;2023-02-28T00:46:20;3.70;1.00
37032;DHT22;22940;52.266;10.536;2023-02-28T00:48:46;3.70;1.00
37032;DHT22;22940;52.266;10.536;2023-02-28T00:51:11;3.70;1.00
37032;DHT22;22940;52.266;10.536;2023-02-28T00:53:37;3.70;1.00
37032;DHT22;22940;52.266;10.536;2023-02-28T00:56:03;3.60;1.00
37032;DHT22;22940;52.266;10.536;2023-02-28T00:58:28;3.60;1.00
37032;DHT22;22940;52.266;10.536;2023-02-28T01:00:54;3.50;1.00
37032;DHT22;22940;52.266;10.536;2023-02-28T01:03:20;3.40;1.00
37032;DHT22;22940;52.266;10.536;2023-02-28T01:05:46;3.30;1.00
37032;DHT22;22940;52.266;10.536;2023-02-28T01:08:12;3.10;1.00
37032;DHT22;22940;52.266;10.536;2023-02-28T01:10:39;3.10;1.00
37032;DHT22;22940;52.266;10.536;2023-02-28T01:13:04;3.00;1.00
37032;DHT22;22940;52.266;10.536;2023-02-28T01:15:30;3.00;1.00
37032;DHT22;22940;52.266;10.536;2023-02-28T01:17:57;2.90;1.00
37032;DHT22;22940;52.266;10.536;2023-02-28T01:20:23;2.90;1.00
37032;DHT22;22940;52.266;10.536;2023-02-28T01:22:48;3.10;1.00
37032;DHT22;22940;52.266;10.536;2023-02-28T01:25:14;3.30;1.00
37032;DHT22;22940;52.266;10.536;2023-02-28T01:27:39;3.00;1.00
37032;DHT22;22940;52.266;10.536;2023-02-28T01:30:05;2.90;1.00
37032;DHT22;22940;52.266;10.536;2023-02-28T01:32:31;3.10;1.00
37032;DHT22;22940;52.266;10.536;2023-02-28T01:34:57;3.20;1.00
37032;DHT22;22940;52.266;10.536;2023-02-28T01:37:23;3.10;1.00
37032;DHT22;22940;52.266;10.536;2023-02-28T01:39:48;3.10;1.00
37032;DHT22;22940;52.266;10.536;2023-02-28T01:42:14;3.00;1.00
37032;DHT22;22940;52.266;10.536;2023-02-28T01:47:28;2.70;1.00
37032;DHT22;22940;52.266;10.536;2023-02-28T01:49:54;2.70;1.00
37032;DHT22;22940;52.266;10.536;2023-02-28T01:52:20;2.70;1.00
37032;DHT22;22940;52.266;10.536;2023-02-28T01:54:46;2.80;1.00
37032;DHT22;22940;52.266;10.536;2023-02-28T01:57:16;2.80;1.00
37032;DHT22;22940;52.266;10.536;2023-02-28T01:59:45;2.70;1.00
37032;DHT22;22940;52.266;10.536;2023-02-28T02:02:16;2.80;1.00
37032;DHT22;22940;52.266;10.536;2023-02-28T02:04:46;3.00;1.00
37032;DHT22;22940;52.266;10.536;2023-02-28T02:07:15;3.30;1.00
37032;DHT22;22940;52.266;10.536;2023-02-28T02:09:41;3.30;1.00
37032;DHT22;22940;52.266;10.536;2023-02-28T02:12:11;3.30;1.00
37032;DHT22;22940;52.266;10.536;2023-02-28T02:17:20;3.30;1.00
37032;DHT22;22940;52.266;10.536;2023-02-28T02:36:05;2.70;1.00
37032;DHT22;22940;52.266;10.536;2023-02-28T02:41:16;2.10;1.00
37032;DHT22;22940;52.266;10.536;2023-02-28T02:46:14;2.70;1.00
37032;DHT22;22940;52.266;10.536;2023-02-28T07:08:14;3.50;1.00
37032;DHT22;22940;52.266;10.536;2023-02-28T07:10:40;3.60;1.00
37032;DHT22;22940;52.266;10.536;2023-02-28T07:13:06;3.60;1.00
37032;DHT22;22940;52.266;10.536;2023-02-28T07:15:32;3.80;1.00
37032;DHT22;22940;52.266;10.536;2023-02-28T07:17:58;3.80;1.00
37032;DHT22;22940;52.266;10.536;2023-02-28T07:20:24;4.00;1.00
37032;DHT22;22940;52.266;10.536;2023-02-28T07:22:49;3.80;1.00
37032;DHT22;22940;52.266;10.536;2023-02-28T07:25:22;4.00;1.00
37032;DHT22;22940;52.266;10.536;2023-02-28T07:27:47;4.30;1.00
37032;DHT22;22940;52.266;10.536;2023-02-28T07:30:13;4.60;1.00
37032;DHT22;22940;52.266;10.536;2023-02-28T07:32:38;4.80;1.00
37032;DHT22;22940;52.266;10.536;2023-02-28T07:35:04;5.00;1.00
37032;DHT22;22940;52.266;10.536;2023-02-28T07:37:30;5.00;1.00
37032;DHT22;22940;52.266;10.536;2023-02-28T07:39:56;5.00;1.00
37032;DHT22;22940;52.266;10.536;2023-02-28T07:42:22;4.80;1.00
37032;DHT22;22940;52.266;10.536;2023-02-28T07:44:47;4.70;1.00
37032;DHT22;22940;52.266;10.536;2023-02-28T07:49:39;5.10;1.00
37032;DHT22;22940;52.266;10.536;2023-02-28T07:52:05;4.90;1.00
37032;DHT22;22940;52.266;10.536;2023-02-28T07:56:57;4.30;1.00
37032;DHT22;22940;52.266;10.536;2023-02-28T08:06:41;4.20;1.00
37032;DHT22;22940;52.266;10.536;2023-02-28T08:09:07;4.30;1.00
37032;DHT22;22940;52.266;10.536;2023-02-28T08:13:58;4.30;1.00
37032;DHT22;22940;52.266;10.536;2023-02-28T08:16:24;4.30;1.00
37032;DHT22;22940;52.266;10.536;2023-02-28T08:18:50;4.40;1.00
37032;DHT22;22940;52.266;10.536;2023-02-28T08:21:15;4.50;1.00
37032;DHT22;22940;52.266;10.536;2023-02-28T08:23:41;4.50;1.00
37032;DHT22;22940;52.266;10.536;2023-02-28T08:31:00;4.40;1.00
37032;DHT22;22940;52.266;10.536;2023-02-28T08:33:26;4.60;1.00
37032;DHT22;22940;52.266;10.536;2023-02-28T08:35:53;4.70;1.00
37032;DHT22;22940;52.266;10.536;2023-02-28T08:38:19;4.80;1.00
37032;DHT22;22940;52.266;10.536;2023-02-28T08:40:44;4.90;1.00
37032;DHT22;22940;52.266;10.536;2023-02-28T08:43:10;4.90;1.00
37032;DHT22;22940;52.266;10.536;2023-02-28T08:45:35;5.00;1.00
37032;DHT22;22940;52.266;10.536;2023-02-28T08:48:01;5.00;1.00
37032;DHT22;22940;52.266;10.536;2023-02-28T08:50:27;5.00;1.00
37032;DHT22;22940;52.266;10.536;2023-02-28T08:52:52;5.00;1.00
37032;DHT22;22940;52.266;10.536;2023-02-28T08:55:18;4.90;1.00
37032;DHT22;22940;52.266;10.536;2023-02-28T08:57:43;5.00;1.00
37032;DHT22;22940;52.266;10.536;2023-02-28T09:00:09;5.00;1.00
37032;DHT22;22940;52.266;10.536;2023-02-28T09:02:35;5.10;1.00
37032;DHT22;22940;52.266;10.536;2023-02-28T09:05:01;5.10;1.00
37032;DHT22;22940;52.266;10.536;2023-02-28T09:07:26;5.20;1.00
37032;DHT22;22940;52.266;10.536;2023-02-28T09:09:52;5.20;1.00
37032;DHT22;22940;52.266;10.536;2023-02-28T09:12:21;5.20;1.00
37032;DHT22;22940;52.266;10.536;2023-02-28T09:14:46;5.20;1.00
37032;DHT22;22940;52.266;10.536;2023-02-28T09:17:12;5.20;1.00
37032;DHT22;22940;52.266;10.536;2023-02-28T09:19:37;5.40;1.00
37032;DHT22;22940;52.266;10.536;2023-02-28T09:39:08;5.80;1.00
37032;DHT22;22940;52.266;10.536;2023-02-28T09:41:38;5.90;1.00
37032;DHT22;22940;52.266;10.536;2023-02-28T09:44:13;6.00;1.00
37032;DHT22;22940;52.266;10.536;2023-02-28T09:46:41;6.00;1.00
37032;DHT22;22940;52.266;10.536;2023-02-28T09:49:12;6.00;1.00
37032;DHT22;22940;52.266;10.536;2023-02-28T09:51:41;5.90;1.00
37032;DHT22;22940;52.266;10.536;2023-02-28T09:56:37;5.80;1.00
37032;DHT22;22940;52.266;10.536;2023-02-28T10:35:50;7.90;1.00
37032;DHT22;22940;52.266;10.536;2023-02-28T11:02:41;11.10;1.00
37032;DHT22;22940;52.266;10.536;2023-02-28T11:17:24;9.30;1.00
37032;DHT22;22940;52.266;10.536;2023-02-28T11:29:35;9.80;1.00
37032;DHT22;22940;52.266;10.536;2023-02-28T11:32:21;10.00;1.00
37032;DHT22;22940;52.266;10.536;2023-02-28T11:34:59;10.10;1.00
37032;DHT22;22940;52.266;10.536;2023-02-28T11:37:25;10.00;1.00
37032;DHT22;22940;52.266;10.536;2023-02-28T11:39:52;9.90;1.00
37032;DHT22;22940;52.266;10.536;2023-02-28T11:44:57;9.80;1.00
37032;DHT22;22940;52.266;10.536;2023-02-28T12:20:23;12.60;1.00
37032;DHT22;22940;52.266;10.536;2023-02-28T12:54:39;12.70;1.00
37032;DHT22;22940;52.266;10.536;2023-02-28T22:19:45;3.80;1.00
37032;DHT22;22940;52.266;10.536;2023-02-28T22:22:11;3.90;1.00
37032;DHT22;22940;52.266;10.536;2023-02-28T22:24:37;3.90;1.00
37032;DHT22;22940;52.266;10.536;2023-02-28T22:31:54;3.90;1.00
37032;DHT22;22940;52.266;10.536;2023-02-28T22:34:20;4.00;1.00
37032;DHT22;22940;52.266;10.536;2023-02-28T22:36:45;4.00;1.00
37032;DHT22;22940;52.266;10.536;2023-02-28T22:39:11;4.00;1.00
37032;DHT22;22940;52.266;10.536;2023-02-28T22:41:37;4.10;1.00
